高松 の空港の天気 - METARとTAF

高松空港 ( RJOT / TAK ) - 香川県高松市
飛行場実況気象(Metar)
観測時間04/26 21:47 JST (04/26 12:47 UTC)
風向・風速東北東 4m/s
視程10km以上
天気現象強いしゅう雨
少しの雲 雲底高度 300m
全天の4割程度の雲 雲底高度 610m
少しの雲 雲底高度 760m
全天の8割程度の雲 雲底高度 1220m
気温13℃
湿度94%
気圧1007hPa
METARRJOT 261247Z 06008KT 9999 +SHRA FEW010 SCT020 FEW025CB BKN040 13/12 Q1007 RMK 1CU010 3CU020 1CB025 5CU040 A2976 CB 5KM SW MOV E
過去の天気等 Google飛行場航空写真 Wunderground天気予報

過去48時間のMETAR

飛行場予報(TAF)
発表時間: 4/26 20:12 JST (4/26 11:12 UTC)
予報対象時間: 26日21時 JST ~ 28日3時 JST
風向・風速西北西 4m/s
視程10km以上
少しの雲 雲底高度 150m
全天の4割程度の雲 雲底高度 460m
全天の8割程度の雲 雲底高度 760m
26日21時 JST ~ 26日24時 JST に一時的に
視程4000m
天気現象雷雨 もや
少しの雲 雲底高度 30m
全天の4割程度の雲 雲底高度 150m
全天の8割程度の雲 雲底高度 240m
少しの積乱雲 雲底高度 610m
TAF RJOT 261112Z 2612/2718 29008KT 9999 FEW005 SCT015 BKN025
TEMPO 2612/2615 4000 TSRA BR FEW001 SCT005 BKN008 FEW020CB
日本の空港のMETAR・TAFへのリンク

RJTT 東京国際空港
RJAA 新東京国際空港
RJBB 関西国際空港
RJOO 大阪空港
RJGG 中部国際空港
RJCC 新千歳空港
RJFF 福岡空港
ROAH 那覇空港


RJEC 旭川空港
RJCH 函館空港
RJCK 釧路空港
RJCM 女満別空港
RJCB 帯広空港
RJSA 青森空港
RJSS 仙台空港
RJSK 秋田空港
RJSF 福島空港
RJAH 茨城空港
RJSN 新潟空港
RJNT 富山空港
RJNK 小松飛行場
RJNS 静岡空港
RJOH 美保飛行場
RJOC 出雲空港
RJOB 岡山空港
RJOA 広島空港
RJOI 岩国飛行場
RJOT 高松空港
RJOM 松山空港
RJOK 高知空港
RJFR 北九州空港
RJFT 熊本空港
RJFU 長崎空港
RJFS 佐賀空港
RJFO 大分空港
RJFM 宮崎空港
RJFK 鹿児島空港
ROIG 石垣島空港
RJTY 横田飛行場
ROTM 普天間飛行場
RODN 嘉手納飛行場